Time;durP1;ratioP1;P1;durP2;ratioP2;P2;SDS_P1;SDS_P2;PMS_P1;PMS_P2;Temp;Humidity;BMP_temperature;BMP_pressure;BME280_temperature;BME280_humidity;BME280_pressure;Samples;Min_cycle;Max_cycle;Signal;HPM_P1;HPM_P2
2021/04/08 00:01:14;;;;;;;3.30;1.00;;;3.90;73.10;;;;;;5014819;28;20443;-70
2021/04/08 00:03:40;;;;;;;5.75;1.60;;;3.90;73.30;;;;;;5014327;28;20048;-69
2021/04/08 00:06:06;;;;;;;7.22;1.00;;;3.90;73.30;;;;;;5013836;28;20187;-71
2021/04/08 00:08:32;;;;;;;5.53;1.42;;;3.90;73.30;;;;;;4981954;28;20409;-69
2021/04/08 00:10:57;;;;;;;6.43;1.10;;;3.90;73.20;;;;;;5014117;28;20129;-70
2021/04/08 00:13:23;;;;;;;7.47;1.60;;;3.90;73.30;;;;;;5013304;28;20057;-68
2021/04/08 00:15:50;;;;;;;5.95;1.52;;;3.90;73.30;;;;;;5013510;28;20398;-69
2021/04/08 00:18:16;;;;;;;5.47;1.30;;;3.90;73.30;;;;;;5013218;28;20046;-70
2021/04/08 00:20:43;;;;;;;5.25;1.27;;;3.90;73.30;;;;;;5020657;28;20483;-69
2021/04/08 00:23:08;;;;;;;8.20;1.63;;;3.90;73.20;;;;;;5010861;28;20049;-68
2021/04/08 00:25:36;;;;;;;4.35;1.70;;;3.90;73.20;;;;;;5013629;28;20391;-69
2021/04/08 00:28:03;;;;;;;8.48;0.98;;;3.90;73.30;;;;;;5017412;28;20121;-70
2021/04/08 00:30:28;;;;;;;7.32;1.40;;;3.90;73.30;;;;;;5034301;28;20038;-69
2021/04/08 00:32:54;;;;;;;7.20;1.20;;;3.90;73.30;;;;;;5022987;28;20046;-70
2021/04/08 00:35:20;;;;;;;5.78;1.50;;;4.00;73.40;;;;;;5031732;28;20052;-69
2021/04/08 00:37:46;;;;;;;8.00;1.30;;;3.90;73.30;;;;;;5013315;28;20097;-69
2021/04/08 00:40:13;;;;;;;5.80;0.90;;;3.90;73.30;;;;;;5013962;28;20088;-69
2021/04/08 00:42:39;;;;;;;4.85;1.25;;;3.90;73.40;;;;;;5014434;28;20038;-68
2021/04/08 00:45:06;;;;;;;5.18;1.17;;;4.00;73.60;;;;;;5012828;28;20057;-70
2021/04/08 00:47:32;;;;;;;5.80;1.42;;;4.00;73.50;;;;;;5014097;28;20479;-69
2021/04/08 00:49:57;;;;;;;4.13;0.98;;;4.00;73.60;;;;;;5019327;28;20041;-69
2021/04/08 00:52:23;;;;;;;4.97;0.95;;;4.00;73.60;;;;;;5015367;28;20054;-69
2021/04/08 00:54:49;;;;;;;7.10;1.20;;;4.00;73.70;;;;;;5026517;28;20121;-68
2021/04/08 00:57:15;;;;;;;6.97;1.35;;;4.00;73.70;;;;;;5006366;28;20211;-69
2021/04/08 00:59:41;;;;;;;4.53;1.00;;;4.00;73.70;;;;;;5012628;28;20121;-69
2021/04/08 01:02:07;;;;;;;5.32;1.48;;;4.00;73.80;;;;;;5012463;28;20053;-70
2021/04/08 01:04:33;;;;;;;6.35;1.10;;;4.00;73.70;;;;;;5011782;28;20073;-69
2021/04/08 01:06:59;;;;;;;3.28;0.90;;;4.00;73.70;;;;;;5017007;28;20459;-69
2021/04/08 01:09:25;;;;;;;3.47;0.63;;;4.00;73.70;;;;;;5032602;28;20049;-69
2021/04/08 01:11:51;;;;;;;3.85;1.00;;;4.00;73.60;;;;;;5032210;28;20068;-68
2021/04/08 01:14:16;;;;;;;4.60;1.00;;;4.10;73.60;;;;;;5032082;28;20125;-69
2021/04/08 01:16:57;;;;;;;5.65;0.77;;;4.00;73.50;;;;;;5031402;28;20077;-68
2021/04/08 01:19:51;;;;;;;4.10;0.82;;;4.00;73.50;;;;;;5032614;28;20046;-69
2021/04/08 01:22:39;;;;;;;3.90;0.70;;;4.00;73.50;;;;;;5017678;28;20045;-69
2021/04/08 01:25:42;;;;;;;4.22;1.23;;;4.00;73.30;;;;;;5027239;28;20042;-69
2021/04/08 01:28:37;;;;;;;5.55;1.10;;;4.00;73.20;;;;;;5012212;28;20438;-69
2021/04/08 01:31:09;;;;;;;4.15;0.77;;;4.00;73.20;;;;;;4999011;28;20075;-70
2021/04/08 01:33:44;;;;;;;4.30;1.00;;;4.00;73.10;;;;;;5012699;28;20486;-68
2021/04/08 01:36:15;;;;;;;4.18;1.65;;;4.00;73.10;;;;;;5011478;28;20053;-71
2021/04/08 01:38:43;;;;;;;4.97;1.13;;;4.00;73.10;;;;;;4998818;28;20041;-69
2021/04/08 01:41:09;;;;;;;6.00;1.00;;;4.00;73.10;;;;;;5010170;28;20046;-70
2021/04/08 01:43:39;;;;;;;5.20;1.17;;;4.00;73.10;;;;;;5018648;28;20110;-69
2021/04/08 01:46:05;;;;;;;5.00;0.80;;;4.00;73.20;;;;;;5017862;28;20049;-69
2021/04/08 01:48:31;;;;;;;4.10;1.10;;;4.00;73.20;;;;;;5021075;28;20354;-69
2021/04/08 01:50:59;;;;;;;3.50;0.60;;;4.00;73.20;;;;;;5013363;28;20046;-69
2021/04/08 01:53:24;;;;;;;5.20;1.13;;;4.00;73.20;;;;;;5031238;28;20073;-69
2021/04/08 01:55:52;;;;;;;4.25;0.95;;;4.10;73.20;;;;;;5024250;28;20081;-69
2021/04/08 01:58:18;;;;;;;3.13;1.02;;;4.00;73.30;;;;;;4994222;28;20038;-70
2021/04/08 02:00:44;;;;;;;5.03;1.00;;;4.00;73.20;;;;;;4995287;28;20129;-69
2021/04/08 02:03:10;;;;;;;4.15;0.95;;;4.00;73.10;;;;;;5012794;28;20143;-70
2021/04/08 02:05:36;;;;;;;3.83;0.82;;;4.10;73.10;;;;;;4994251;28;20110;-69
2021/04/08 02:08:01;;;;;;;4.00;0.68;;;4.10;73.10;;;;;;5008415;28;20505;-69
2021/04/08 02:10:28;;;;;;;3.45;0.75;;;4.00;73.10;;;;;;5030230;28;20458;-70
2021/04/08 02:12:54;;;;;;;5.53;0.85;;;4.10;73.10;;;;;;5030687;28;20053;-69
2021/04/08 02:15:20;;;;;;;4.55;0.90;;;4.00;73.10;;;;;;5023634;28;20382;-70
2021/04/08 02:17:49;;;;;;;3.85;0.82;;;4.10;73.10;;;;;;4994988;28;20482;-68
2021/04/08 02:20:16;;;;;;;3.58;0.65;;;4.10;73.10;;;;;;4994762;28;20120;-71
2021/04/08 02:22:53;;;;;;;4.30;1.33;;;4.00;73.10;;;;;;5011731;28;20041;-69
2021/04/08 02:25:18;;;;;;;7.15;1.23;;;4.00;73.20;;;;;;5011608;28;20040;-72
2021/04/08 02:27:44;;;;;;;4.18;0.88;;;4.00;73.10;;;;;;5001291;28;20049;-70
2021/04/08 02:30:15;;;;;;;4.57;0.90;;;4.10;73.20;;;;;;4994879;28;20073;-70
2021/04/08 02:32:41;;;;;;;4.65;0.95;;;4.00;73.10;;;;;;5013004;28;20049;-70
2021/04/08 02:35:17;;;;;;;5.05;0.90;;;4.00;73.10;;;;;;5027009;28;20076;-68
2021/04/08 02:37:43;;;;;;;4.80;1.50;;;4.00;73.10;;;;;;5011754;28;20049;-69
2021/04/08 02:40:10;;;;;;;7.20;1.27;;;4.00;73.10;;;;;;5012229;28;20065;-69
2021/04/08 02:42:36;;;;;;;4.18;0.98;;;4.00;73.90;;;;;;5011515;28;20471;-68
2021/04/08 02:45:03;;;;;;;3.80;1.30;;;4.00;73.20;;;;;;5014561;28;20110;-68
2021/04/08 02:47:29;;;;;;;6.10;0.93;;;4.00;73.10;;;;;;5030777;28;20080;-69
2021/04/08 02:49:55;;;;;;;3.40;0.80;;;4.00;73.20;;;;;;5030683;28;20087;-68
2021/04/08 02:52:24;;;;;;;6.93;1.17;;;4.00;73.20;;;;;;5025940;28;20041;-71
2021/04/08 02:54:53;;;;;;;7.20;1.10;;;4.00;73.40;;;;;;5020336;28;20054;-70
2021/04/08 02:57:23;;;;;;;3.97;0.60;;;4.00;73.60;;;;;;5012192;28;20045;-70
2021/04/08 03:00:07;;;;;;;5.60;1.10;;;4.00;73.70;;;;;;5013503;28;20046;-68
2021/04/08 03:02:34;;;;;;;4.10;0.80;;;4.00;73.80;;;;;;5031092;28;20132;-69
2021/04/08 03:05:00;;;;;;;5.38;1.20;;;4.00;73.60;;;;;;5013739;28;20060;-69
2021/04/08 03:07:30;;;;;;;6.30;1.08;;;4.00;73.60;;;;;;5029486;28;20037;-69
2021/04/08 03:09:56;;;;;;;5.75;1.00;;;4.00;73.70;;;;;;5000471;28;20042;-69
2021/04/08 03:12:22;;;;;;;4.32;0.80;;;3.90;73.60;;;;;;4994096;28;20053;-70
2021/04/08 03:14:50;;;;;;;6.78;1.33;;;3.90;73.70;;;;;;5009766;28;20080;-68
2021/04/08 03:17:18;;;;;;;6.72;1.48;;;3.90;73.60;;;;;;5010662;28;20117;-69
2021/04/08 03:19:44;;;;;;;5.95;0.88;;;3.90;73.60;;;;;;5010009;28;20617;-70
2021/04/08 03:22:10;;;;;;;4.90;0.70;;;3.90;73.60;;;;;;5009498;28;20084;-69
2021/04/08 03:24:36;;;;;;;4.95;0.88;;;3.90;73.60;;;;;;5013078;28;20041;-69
2021/04/08 03:27:02;;;;;;;6.15;1.05;;;3.80;73.60;;;;;;4997241;28;20095;-68
2021/04/08 03:29:28;;;;;;;4.75;1.13;;;3.80;73.70;;;;;;5013101;28;20498;-70
2021/04/08 03:31:54;;;;;;;8.02;1.17;;;3.80;73.60;;;;;;5031497;28;20041;-69
2021/04/08 03:34:20;;;;;;;4.85;1.70;;;3.80;73.70;;;;;;5031322;28;20358;-69
2021/04/08 03:36:45;;;;;;;7.10;1.30;;;3.80;73.70;;;;;;5029006;28;20103;-69
2021/04/08 03:39:11;;;;;;;6.07;1.40;;;3.80;73.70;;;;;;5013722;28;20124;-69
2021/04/08 03:41:41;;;;;;;3.03;0.90;;;3.80;73.80;;;;;;4996586;28;20454;-69
2021/04/08 03:44:09;;;;;;;7.35;1.13;;;3.80;73.80;;;;;;5013541;28;20072;-70
2021/04/08 03:46:36;;;;;;;6.60;1.17;;;3.80;73.90;;;;;;5030832;28;20073;-70
2021/04/08 03:49:01;;;;;;;4.97;1.25;;;3.70;73.90;;;;;;4998778;28;20058;-70
2021/04/08 03:51:29;;;;;;;3.95;0.93;;;3.80;74.00;;;;;;5009445;28;20487;-71
2021/04/08 03:53:55;;;;;;;4.85;1.00;;;3.80;74.10;;;;;;5008026;28;20053;-69
2021/04/08 03:56:21;;;;;;;4.53;1.33;;;3.80;74.10;;;;;;5011750;28;20085;-69
2021/04/08 03:58:46;;;;;;;5.18;1.05;;;3.80;74.00;;;;;;5010731;28;20062;-69
2021/04/08 04:01:16;;;;;;;4.80;1.25;;;3.80;74.20;;;;;;5011436;28;20394;-69
2021/04/08 04:03:42;;;;;;;3.78;1.10;;;3.90;74.10;;;;;;4993330;28;20053;-70
2021/04/08 04:06:11;;;;;;;8.10;1.27;;;3.80;74.20;;;;;;4993680;28;20455;-70
2021/04/08 04:08:37;;;;;;;6.43;1.55;;;3.80;74.20;;;;;;5016858;28;20057;-69
2021/04/08 04:11:03;;;;;;;5.40;1.38;;;3.80;74.20;;;;;;5013508;28;20046;-69
2021/04/08 04:13:29;;;;;;;5.50;1.30;;;3.80;74.20;;;;;;5013094;28;20053;-71
2021/04/08 04:15:54;;;;;;;6.80;1.20;;;3.80;74.20;;;;;;5017759;28;20111;-69
2021/04/08 04:18:20;;;;;;;5.40;1.30;;;3.80;74.20;;;;;;5016762;28;20048;-69
2021/04/08 04:20:47;;;;;;;2.83;0.93;;;3.80;74.30;;;;;;5033747;28;20125;-69
2021/04/08 04:23:13;;;;;;;4.78;1.65;;;3.80;74.30;;;;;;5034369;28;20080;-69
2021/04/08 04:25:38;;;;;;;5.00;1.20;;;3.90;74.40;;;;;;5033598;28;20501;-69
2021/04/08 04:28:04;;;;;;;5.00;1.25;;;3.90;74.40;;;;;;5033153;28;20128;-69
2021/04/08 04:30:30;;;;;;;7.75;1.55;;;3.90;74.40;;;;;;5034115;28;20410;-71
2021/04/08 04:32:57;;;;;;;3.00;0.82;;;3.90;74.40;;;;;;5027256;28;20037;-69
2021/04/08 04:35:30;;;;;;;6.15;1.50;;;3.90;74.40;;;;;;5030380;28;20041;-70
2021/04/08 04:37:57;;;;;;;3.05;0.85;;;3.90;74.50;;;;;;5025572;28;20121;-69
2021/04/08 04:40:23;;;;;;;6.18;1.48;;;3.90;74.50;;;;;;5013137;28;20045;-69
2021/04/08 04:42:49;;;;;;;5.93;1.30;;;3.90;74.40;;;;;;5032085;28;20049;-69
2021/04/08 04:45:15;;;;;;;3.08;1.13;;;3.90;74.50;;;;;;5016437;28;20049;-69
2021/04/08 04:47:44;;;;;;;5.10;1.02;;;3.90;74.40;;;;;;5033336;28;20063;-69
2021/04/08 04:50:13;;;;;;;3.00;1.00;;;3.90;74.50;;;;;;5032889;28;20047;-69
2021/04/08 04:52:40;;;;;;;5.30;1.33;;;3.90;74.60;;;;;;5031701;28;20045;-68
2021/04/08 04:55:07;;;;;;;4.28;1.00;;;3.90;74.50;;;;;;5020222;28;20375;-68
2021/04/08 04:57:32;;;;;;;3.47;1.05;;;3.90;74.60;;;;;;5004433;28;20046;-70
2021/04/08 04:59:58;;;;;;;5.03;1.13;;;4.00;74.60;;;;;;5032770;28;20061;-69
2021/04/08 05:02:24;;;;;;;6.15;1.27;;;4.00;74.50;;;;;;5026076;28;20045;-68
2021/04/08 05:04:50;;;;;;;2.95;0.90;;;4.00;74.40;;;;;;5013246;28;20488;-69
2021/04/08 05:07:18;;;;;;;3.17;1.20;;;4.00;74.40;;;;;;5026036;28;20045;-69
2021/04/08 05:09:44;;;;;;;5.00;1.33;;;4.00;74.40;;;;;;5031708;28;20091;-70
2021/04/08 05:12:10;;;;;;;3.00;1.00;;;4.00;74.40;;;;;;5032357;28;20077;-69
2021/04/08 05:14:36;;;;;;;4.70;1.10;;;4.00;74.20;;;;;;5033017;28;20511;-70
2021/04/08 05:17:01;;;;;;;5.38;1.20;;;4.00;74.20;;;;;;5014892;28;20046;-69
2021/04/08 05:19:27;;;;;;;3.92;1.50;;;4.00;74.20;;;;;;5032012;28;20045;-69
2021/04/08 05:21:53;;;;;;;3.47;0.80;;;4.10;74.20;;;;;;5032055;28;20075;-69
2021/04/08 05:24:19;;;;;;;6.15;1.45;;;4.10;74.10;;;;;;5015206;28;20045;-69
2021/04/08 05:26:45;;;;;;;3.42;0.90;;;4.10;74.10;;;;;;5012722;28;20069;-69
2021/04/08 05:29:11;;;;;;;3.95;1.00;;;4.10;74.10;;;;;;5011497;28;20054;-69
2021/04/08 05:31:37;;;;;;;4.30;1.30;;;4.10;74.10;;;;;;5012528;28;20046;-70
2021/04/08 05:34:03;;;;;;;4.57;1.30;;;4.10;74.20;;;;;;5016308;28;20095;-69
2021/04/08 05:36:29;;;;;;;2.92;0.80;;;4.10;74.10;;;;;;5032514;28;20474;-70
2021/04/08 05:38:55;;;;;;;6.40;1.75;;;4.10;74.10;;;;;;5030321;28;20068;-70
2021/04/08 05:41:21;;;;;;;2.85;1.25;;;4.10;74.20;;;;;;5014219;28;20045;-70
2021/04/08 05:43:47;;;;;;;3.65;1.13;;;4.10;74.20;;;;;;5011461;28;20390;-70
2021/04/08 05:46:13;;;;;;;5.15;1.30;;;4.20;74.30;;;;;;5012635;28;20057;-70
2021/04/08 05:48:39;;;;;;;3.47;1.02;;;4.20;74.30;;;;;;5012462;28;20045;-69
2021/04/08 05:51:05;;;;;;;2.85;0.98;;;4.20;74.30;;;;;;5012102;28;20129;-70
2021/04/08 05:53:31;;;;;;;3.40;1.40;;;4.20;74.30;;;;;;5022585;28;20068;-68
2021/04/08 05:55:57;;;;;;;3.58;1.00;;;4.20;74.30;;;;;;5026457;28;20041;-68
2021/04/08 05:58:23;;;;;;;4.20;1.10;;;4.30;75.10;;;;;;5021691;28;20100;-69
2021/04/08 06:00:49;;;;;;;4.55;1.23;;;4.20;74.30;;;;;;5010203;28;20065;-70
2021/04/08 06:03:14;;;;;;;4.65;1.10;;;4.30;74.30;;;;;;4994868;28;20056;-69
2021/04/08 06:05:41;;;;;;;5.78;1.23;;;4.30;74.30;;;;;;5012585;28;20088;-69
2021/04/08 06:08:07;;;;;;;6.07;1.15;;;4.30;74.30;;;;;;5010251;28;20045;-70
2021/04/08 06:10:33;;;;;;;4.20;1.48;;;4.40;74.30;;;;;;5015897;28;20037;-69
2021/04/08 06:12:59;;;;;;;4.93;1.27;;;4.40;74.30;;;;;;5029929;28;20041;-69
2021/04/08 06:15:29;;;;;;;5.78;1.70;;;4.40;74.30;;;;;;5024576;28;20155;-70
2021/04/08 06:17:55;;;;;;;3.13;1.10;;;4.40;74.20;;;;;;5018288;28;20042;-70
2021/04/08 06:20:21;;;;;;;5.03;1.38;;;4.50;74.30;;;;;;5020265;28;20060;-70
2021/04/08 06:22:52;;;;;;;3.08;1.13;;;4.50;74.20;;;;;;5019926;28;20041;-69
2021/04/08 06:25:18;;;;;;;7.18;1.60;;;4.50;74.10;;;;;;5024410;28;20034;-69
2021/04/08 06:27:43;;;;;;;5.47;1.23;;;4.50;74.10;;;;;;5007544;28;20057;-69
2021/04/08 06:30:11;;;;;;;6.88;2.15;;;4.60;74.10;;;;;;5020327;28;20045;-68
2021/04/08 06:32:38;;;;;;;5.35;1.25;;;4.60;74.00;;;;;;5019291;28;20469;-69
2021/04/08 06:35:08;;;;;;;5.95;1.40;;;4.60;74.10;;;;;;5022169;28;20373;-69
2021/04/08 06:37:34;;;;;;;5.03;1.30;;;4.60;74.10;;;;;;5004307;28;20041;-69
2021/04/08 06:39:59;;;;;;;7.85;1.77;;;4.70;74.10;;;;;;5020222;28;20350;-70
2021/04/08 06:42:25;;;;;;;4.47;1.00;;;4.70;74.20;;;;;;5007100;28;20116;-69
2021/04/08 06:44:52;;;;;;;3.97;1.23;;;4.70;74.10;;;;;;5022510;28;20041;-69
2021/04/08 06:47:30;;;;;;;7.35;1.55;;;4.70;74.00;;;;;;5021320;28;20041;-69
2021/04/08 06:50:04;;;;;;;4.13;1.48;;;4.70;74.10;;;;;;5028537;28;20402;-69
2021/04/08 06:52:30;;;;;;;5.55;1.50;;;4.80;74.00;;;;;;5013532;28;20061;-69
2021/04/08 06:54:55;;;;;;;4.85;1.80;;;4.80;74.00;;;;;;5012233;28;20068;-70
2021/04/08 06:57:21;;;;;;;4.03;1.58;;;4.90;74.00;;;;;;5012063;28;20052;-70
2021/04/08 06:59:47;;;;;;;5.43;1.65;;;4.90;74.00;;;;;;5029267;28;20041;-70
2021/04/08 07:02:18;;;;;;;5.55;1.30;;;4.90;74.00;;;;;;5019127;28;20070;-69
2021/04/08 07:04:43;;;;;;;5.85;1.67;;;5.00;74.00;;;;;;5022614;28;20056;-63
2021/04/08 07:07:09;;;;;;;3.88;1.40;;;5.00;74.00;;;;;;5024843;28;20037;-69
2021/04/08 07:09:35;;;;;;;5.28;2.03;;;5.30;74.90;;;;;;5010248;28;20095;-69
2021/04/08 07:12:01;;;;;;;5.40;1.48;;;5.50;73.90;;;;;;5011616;28;20129;-68
2021/04/08 07:14:27;;;;;;;4.40;1.80;;;5.40;73.40;;;;;;5030887;28;20069;-69
2021/04/08 07:16:53;;;;;;;6.18;2.30;;;5.40;74.20;;;;;;5009588;28;20488;-72
2021/04/08 07:19:20;;;;;;;5.80;1.50;;;5.50;73.60;;;;;;5020428;28;20115;-69
2021/04/08 07:21:46;;;;;;;6.55;1.52;;;5.50;73.20;;;;;;5023158;28;20486;-70
2021/04/08 07:24:13;;;;;;;5.38;1.30;;;5.50;73.10;;;;;;5020946;28;20035;-69
2021/04/08 07:26:53;;;;;;;5.82;1.42;;;5.40;73.00;;;;;;5021567;28;21294;-69
2021/04/08 07:29:20;;;;;;;4.20;1.33;;;5.40;73.00;;;;;;5021568;28;20042;-70
2021/04/08 07:31:46;;;;;;;6.30;1.33;;;5.50;73.00;;;;;;5009191;28;20046;-70
2021/04/08 07:34:12;;;;;;;5.90;1.35;;;5.40;73.00;;;;;;5019884;28;20132;-69
2021/04/08 07:36:39;;;;;;;8.40;1.90;;;5.40;73.00;;;;;;5017815;28;20048;-69
2021/04/08 07:39:15;;;;;;;4.68;1.33;;;5.30;73.10;;;;;;5023111;28;20042;-69
2021/04/08 07:41:41;;;;;;;3.97;1.00;;;5.40;73.10;;;;;;5031012;28;20073;-70
2021/04/08 07:44:09;;;;;;;10.50;2.05;;;5.40;73.20;;;;;;5015683;28;20107;-71
2021/04/08 07:46:39;;;;;;;5.47;1.77;;;5.40;73.20;;;;;;5011040;28;20054;-70
2021/04/08 07:49:24;;;;;;;4.18;1.73;;;5.50;74.30;;;;;;5013180;28;20091;-72
2021/04/08 07:51:50;;;;;;;6.90;1.98;;;5.70;74.60;;;;;;5024404;28;20049;-71
2021/04/08 07:54:16;;;;;;;6.07;1.88;;;5.70;73.30;;;;;;5031448;28;20041;-71
2021/04/08 07:56:42;;;;;;;4.00;1.50;;;5.80;73.10;;;;;;5025016;28;20390;-70
2021/04/08 07:59:35;;;;;;;5.05;1.80;;;5.70;72.80;;;;;;5028847;28;20037;-71
2021/04/08 08:02:06;;;;;;;6.45;1.90;;;5.80;72.90;;;;;;5042232;28;20045;-72
2021/04/08 08:04:32;;;;;;;11.15;2.10;;;5.80;72.80;;;;;;5014884;28;20084;-72
2021/04/08 08:06:58;;;;;;;5.85;2.03;;;5.90;72.80;;;;;;5031519;28;20065;-72
2021/04/08 08:09:28;;;;;;;5.97;2.00;;;5.90;72.70;;;;;;5031285;28;20065;-70
2021/04/08 08:11:56;;;;;;;6.78;1.95;;;6.00;72.70;;;;;;5015040;28;20370;-73
2021/04/08 08:14:49;;;;;;;4.88;1.60;;;6.00;72.60;;;;;;5031091;28;20133;-72
2021/04/08 08:17:15;;;;;;;6.22;2.20;;;6.00;72.40;;;;;;5028783;28;20297;-73
2021/04/08 08:19:43;;;;;;;6.78;2.47;;;6.10;73.20;;;;;;5033092;28;20463;-72
2021/04/08 08:22:19;;;;;;;5.72;2.22;;;6.20;72.40;;;;;;4995056;28;20115;-71
2021/04/08 08:24:58;;;;;;;5.93;2.13;;;6.20;72.40;;;;;;5031724;28;20374;-71
2021/04/08 08:27:45;;;;;;;4.93;1.60;;;6.30;72.40;;;;;;5031256;28;20164;-72
2021/04/08 08:30:17;;;;;;;5.65;2.47;;;6.40;72.10;;;;;;5021833;28;20088;-71
2021/04/08 08:33:01;;;;;;;8.43;2.25;;;6.40;71.80;;;;;;5027627;28;20079;-71
2021/04/08 08:35:27;;;;;;;5.88;2.03;;;6.40;71.50;;;;;;5031789;28;20362;-72
2021/04/08 08:37:55;;;;;;;5.07;1.52;;;6.50;71.30;;;;;;5031829;28;20052;-72
2021/04/08 08:40:22;;;;;;;3.65;1.63;;;6.60;71.30;;;;;;5030105;28;20498;-71
2021/04/08 08:42:50;;;;;;;7.35;1.63;;;6.60;71.10;;;;;;5014089;28;20030;-72
2021/04/08 08:45:17;;;;;;;9.10;2.22;;;6.60;71.00;;;;;;5029399;28;20119;-72
2021/04/08 08:47:42;;;;;;;8.82;2.42;;;6.70;70.80;;;;;;5030771;28;20037;-71
2021/04/08 08:50:10;;;;;;;5.68;2.10;;;6.70;70.50;;;;;;5013422;28;20037;-71
2021/04/08 08:52:40;;;;;;;6.32;2.00;;;6.80;70.40;;;;;;5013747;28;20110;-71
2021/04/08 08:55:11;;;;;;;5.65;1.92;;;6.80;69.90;;;;;;5011936;28;20045;-71
2021/04/08 08:57:38;;;;;;;6.88;2.45;;;6.80;69.80;;;;;;5027861;28;20056;-71
2021/04/08 09:00:05;;;;;;;5.15;1.40;;;6.80;69.60;;;;;;5030975;28;20046;-76
2021/04/08 09:02:31;;;;;;;7.20;2.00;;;7.40;71.30;;;;;;5023219;28;20187;-72
2021/04/08 09:04:58;;;;;;;6.60;2.10;;;7.50;69.20;;;;;;4990992;28;20038;-71
2021/04/08 09:07:25;;;;;;;6.72;2.25;;;7.60;68.40;;;;;;5012284;28;20041;-71
2021/04/08 09:09:56;;;;;;;6.47;2.67;;;7.60;68.10;;;;;;5014360;28;20038;-71
2021/04/08 09:12:22;;;;;;;2.85;1.52;;;7.60;67.80;;;;;;5014019;28;20893;-71
2021/04/08 09:14:48;;;;;;;6.63;2.83;;;7.60;67.70;;;;;;5030105;28;20428;-70
2021/04/08 09:17:46;;;;;;;9.10;2.83;;;7.70;66.50;;;;;;5029552;28;20497;-70
2021/04/08 09:20:13;;;;;;;6.78;2.40;;;7.70;66.10;;;;;;5030339;28;20478;-71
2021/04/08 09:23:06;;;;;;;5.07;2.33;;;7.70;66.10;;;;;;5031917;28;20049;-70
2021/04/08 09:25:37;;;;;;;9.10;3.10;;;7.70;65.60;;;;;;5031895;28;20053;-70
2021/04/08 09:28:08;;;;;;;7.82;2.72;;;7.70;65.90;;;;;;5031853;28;20041;-72
2021/04/08 09:33:39;;;;;;;;;;;7.70;65.20;;;;;;5028589;28;20132;-71
2021/04/08 09:36:21;;;;;;;5.35;3.33;;;7.80;64.10;;;;;;5030172;28;20419;-73
2021/04/08 09:39:10;;;;;;;7.10;2.55;;;7.70;64.50;;;;;;5031509;28;20038;-71
2021/04/08 09:41:47;;;;;;;7.78;2.63;;;7.80;64.60;;;;;;5018388;28;20128;-71
2021/04/08 09:44:16;;;;;;;6.60;3.13;;;7.80;64.10;;;;;;5028864;28;20052;-71
2021/04/08 09:46:44;;;;;;;4.72;2.90;;;7.80;64.10;;;;;;5030231;28;20676;-70
2021/04/08 09:49:10;;;;;;;5.15;2.70;;;7.90;64.10;;;;;;5013476;28;20151;-72
2021/04/08 09:51:44;;;;;;;6.70;2.80;;;8.00;63.80;;;;;;5029930;28;20061;-71
2021/04/08 09:54:16;;;;;;;6.90;2.95;;;8.00;63.50;;;;;;5022243;28;20044;-71
2021/04/08 09:56:55;;;;;;;8.23;3.05;;;8.10;63.10;;;;;;5028656;28;20045;-71
2021/04/08 09:59:21;;;;;;;7.25;2.80;;;8.10;62.90;;;;;;5026892;28;20076;-72
2021/04/08 10:01:47;;;;;;;4.85;2.80;;;8.20;62.70;;;;;;5029184;28;20041;-70
2021/04/08 10:04:19;;;;;;;3.65;1.60;;;8.20;62.40;;;;;;5028288;28;20045;-71
2021/04/08 10:06:45;;;;;;;6.97;3.17;;;8.50;64.40;;;;;;5029069;28;20095;-72
2021/04/08 10:09:16;;;;;;;6.57;3.20;;;8.90;63.20;;;;;;5028137;28;20098;-73
2021/04/08 10:11:42;;;;;;;6.00;2.88;;;9.00;60.50;;;;;;5013654;28;20098;-70
2021/04/08 10:14:20;;;;;;;5.45;3.25;;;9.00;60.00;;;;;;5030287;28;20072;-71
2021/04/08 10:17:32;;;;;;;5.93;3.80;;;9.00;59.10;;;;;;5030189;28;20544;-72
2021/04/08 10:20:18;;;;;;;5.53;3.85;;;9.00;57.80;;;;;;4972474;28;20101;-71
2021/04/08 10:22:45;;;;;;;9.70;4.00;;;9.10;58.30;;;;;;4955143;28;20050;-70
2021/04/08 10:25:14;;;;;;;7.63;2.95;;;9.20;58.30;;;;;;4986826;28;20071;-73
2021/04/08 10:28:01;;;;;;;4.97;3.10;;;9.60;59.40;;;;;;5015555;28;20052;-70
2021/04/08 10:30:33;;;;;;;6.00;3.28;;;9.60;56.80;;;;;;5029370;28;20056;-72
2021/04/08 10:32:58;;;;;;;7.03;3.17;;;9.60;56.10;;;;;;5008678;28;20034;-71
2021/04/08 10:35:26;;;;;;;7.25;3.53;;;9.50;55.40;;;;;;5028501;28;20069;-73
2021/04/08 10:38:07;;;;;;;6.47;4.15;;;9.50;55.20;;;;;;5028587;28;20068;-73
2021/04/08 10:40:33;;;;;;;5.97;3.45;;;9.50;53.50;;;;;;5026160;28;20424;-72
2021/04/08 10:43:14;;;;;;;7.03;3.38;;;9.40;54.40;;;;;;5029304;28;20045;-72
2021/04/08 10:45:57;;;;;;;4.60;3.28;;;9.40;53.80;;;;;;5027206;28;20067;-72
2021/04/08 10:48:24;;;;;;;7.57;3.17;;;9.40;54.00;;;;;;5027816;28;20079;-71
2021/04/08 10:50:50;;;;;;;6.90;3.40;;;9.40;54.10;;;;;;5027288;28;20041;-68
2021/04/08 10:53:20;;;;;;;5.35;3.33;;;9.40;53.60;;;;;;5029286;28;20045;-68
2021/04/08 10:55:47;;;;;;;6.45;3.58;;;9.60;54.10;;;;;;5012103;28;20076;-70
2021/04/08 10:58:29;;;;;;;5.50;4.25;;;9.50;53.20;;;;;;5011312;28;20117;-71
2021/04/08 11:00:55;;;;;;;7.22;4.40;;;9.50;53.50;;;;;;5028034;28;20041;-71
2021/04/08 11:03:22;;;;;;;5.93;4.57;;;9.50;52.60;;;;;;5011061;28;20045;-72
2021/04/08 11:05:48;;;;;;;10.45;5.50;;;9.50;52.50;;;;;;5027880;28;20042;-71
2021/04/08 11:08:13;;;;;;;9.05;5.43;;;9.60;52.40;;;;;;5004094;28;20589;-72
2021/04/08 11:10:39;;;;;;;6.63;5.80;;;9.50;51.90;;;;;;5028622;28;20606;-71
2021/04/08 11:13:06;;;;;;;6.72;5.32;;;9.50;51.70;;;;;;5029419;28;20061;-72
2021/04/08 11:15:33;;;;;;;7.55;5.35;;;9.50;51.60;;;;;;5027172;28;20053;-72
2021/04/08 11:18:08;;;;;;;7.00;4.93;;;9.50;51.60;;;;;;4993207;28;20042;-71
2021/04/08 11:20:41;;;;;;;6.07;4.95;;;9.50;51.00;;;;;;5021019;28;20158;-72
2021/04/08 11:23:07;;;;;;;7.15;5.18;;;9.50;50.50;;;;;;5021508;28;20421;-72
2021/04/08 11:25:33;;;;;;;9.98;6.30;;;9.60;51.20;;;;;;5022058;28;20388;-72
2021/04/08 11:28:01;;;;;;;6.15;5.43;;;9.50;51.40;;;;;;5023912;28;20037;-71
2021/04/08 11:30:34;;;;;;;6.65;5.47;;;9.80;52.20;;;;;;5018615;28;20041;-71
2021/04/08 11:33:00;;;;;;;9.85;6.60;;;9.70;52.00;;;;;;5006487;28;20037;-71
2021/04/08 11:35:37;;;;;;;6.22;5.47;;;9.70;50.80;;;;;;5024116;28;20052;-71
2021/04/08 11:38:23;;;;;;;9.55;6.45;;;9.60;50.20;;;;;;5019635;28;20045;-71
2021/04/08 11:41:02;;;;;;;8.48;6.43;;;9.60;50.20;;;;;;5014414;28;20062;-71
2021/04/08 11:43:34;;;;;;;7.13;5.72;;;9.50;50.70;;;;;;5012736;28;20497;-71
2021/04/08 11:46:01;;;;;;;9.00;6.30;;;9.50;50.80;;;;;;5014893;28;20053;-71
2021/04/08 11:48:38;;;;;;;8.05;6.45;;;9.50;51.00;;;;;;5013750;28;20081;-71
2021/04/08 11:51:05;;;;;;;12.05;7.25;;;9.60;51.00;;;;;;5014364;28;20410;-70
2021/04/08 11:53:41;;;;;;;8.68;6.45;;;9.70;51.60;;;;;;4996004;28;20042;-70
2021/04/08 11:56:26;;;;;;;9.35;6.15;;;9.80;51.30;;;;;;4997960;28;20133;-71
2021/04/08 11:58:52;;;;;;;9.98;7.35;;;9.90;50.90;;;;;;5014110;28;20119;-72
2021/04/08 12:01:19;;;;;;;8.77;7.88;;;10.00;51.00;;;;;;5014208;28;20483;-73
2021/04/08 12:03:48;;;;;;;12.75;8.23;;;10.00;50.70;;;;;;5012433;28;20100;-73
2021/04/08 12:06:18;;;;;;;10.18;7.90;;;10.10;50.40;;;;;;5019328;28;20131;-71
2021/04/08 12:08:50;;;;;;;11.50;8.57;;;10.10;50.10;;;;;;5020195;28;20653;-72
2021/04/08 12:11:16;;;;;;;7.82;6.90;;;10.20;49.60;;;;;;5029571;28;20501;-72
2021/04/08 12:13:43;;;;;;;10.55;7.00;;;10.30;49.70;;;;;;5032015;28;20481;-72
2021/04/08 12:16:21;;;;;;;9.55;7.50;;;10.30;49.60;;;;;;5032549;28;20080;-72
2021/04/08 12:18:47;;;;;;;9.18;7.70;;;10.30;48.80;;;;;;5012138;28;20320;-72
2021/04/08 12:21:13;;;;;;;8.70;7.53;;;10.20;49.30;;;;;;5014751;28;20534;-71
2021/04/08 12:23:39;;;;;;;9.90;8.10;;;10.30;49.10;;;;;;5004246;28;20550;-71
2021/04/08 12:26:05;;;;;;;8.07;7.05;;;10.30;49.30;;;;;;5017843;28;20072;-71
2021/04/08 12:28:32;;;;;;;9.45;8.02;;;10.30;48.80;;;;;;5015891;28;20041;-72
2021/04/08 12:31:01;;;;;;;8.13;7.32;;;10.40;49.40;;;;;;5026377;28;20048;-71
2021/04/08 12:33:30;;;;;;;9.48;7.68;;;10.50;48.60;;;;;;5027123;28;20037;-74
2021/04/08 12:35:57;;;;;;;9.02;7.88;;;10.60;48.60;;;;;;5021909;28;20038;-71
2021/04/08 12:38:23;;;;;;;8.57;7.63;;;10.70;48.50;;;;;;5022720;28;20116;-71
2021/04/08 12:40:49;;;;;;;9.15;8.13;;;10.70;48.40;;;;;;5029792;28;20060;-70
2021/04/08 12:43:15;;;;;;;10.00;7.80;;;10.80;48.90;;;;;;5031966;28;20095;-70
2021/04/08 12:45:41;;;;;;;9.52;8.13;;;10.80;48.20;;;;;;5031180;28;20045;-70
2021/04/08 12:48:07;;;;;;;11.38;7.97;;;10.80;48.20;;;;;;4999274;28;20099;-70
2021/04/08 12:50:33;;;;;;;10.88;7.25;;;10.80;48.10;;;;;;5028233;28;20136;-71
2021/04/08 12:52:59;;;;;;;9.23;8.40;;;10.80;48.00;;;;;;5010443;28;20053;-71
2021/04/08 12:55:26;;;;;;;8.75;7.80;;;11.00;48.10;;;;;;5023062;28;20100;-70
2021/04/08 12:57:54;;;;;;;9.85;8.95;;;11.10;48.10;;;;;;5020240;28;20383;-70
2021/04/08 13:00:21;;;;;;;12.55;8.50;;;11.10;47.90;;;;;;5018556;28;20057;-70
2021/04/08 13:02:47;;;;;;;9.38;8.20;;;11.20;47.80;;;;;;5011263;28;20536;-70
2021/04/08 13:05:13;;;;;;;8.55;7.65;;;11.20;47.60;;;;;;5011564;28;20046;-70
2021/04/08 13:07:38;;;;;;;9.55;8.35;;;11.20;47.70;;;;;;5012267;28;20053;-70